Time;durP1;ratioP1;P1;durP2;ratioP2;P2;SDS_P1;SDS_P2;PMS_P1;PMS_P2;Temp;Humidity;BMP_temperature;BMP_pressure;BME280_temperature;BME280_humidity;BME280_pressure;Samples;Min_cycle;Max_cycle;Signal;HPM_P1;HPM_P2
2022/03/09 00:01:54;;;;;;;24.33;14.80;;;;;;;-1.16;54.25;93756.97;5024312;28;20340;-72
2022/03/09 00:04:20;;;;;;;29.10;14.35;;;;;;;-1.48;53.88;93737.78;5023186;28;20043;-70
2022/03/09 00:06:45;;;;;;;28.15;14.07;;;;;;;-1.29;53.92;93759.94;5026493;28;20094;-71
2022/03/09 00:09:13;;;;;;;23.92;12.63;;;;;;;-1.18;53.78;93761.66;5023626;28;20033;-71
2022/03/09 00:11:38;;;;;;;30.02;14.35;;;;;;;-1.13;53.60;93764.34;5017056;28;20060;-71
2022/03/09 00:14:04;;;;;;;26.50;12.73;;;;;;;-1.24;53.75;93765.22;5021984;28;20155;-71
2022/03/09 00:16:29;;;;;;;26.40;12.65;;;;;;;-1.24;53.84;93757.41;5020675;28;20391;-72
2022/03/09 00:18:55;;;;;;;29.92;13.07;;;;;;;-1.19;53.98;93764.50;5023059;28;20526;-73
2022/03/09 00:21:20;;;;;;;23.35;11.90;;;;;;;-1.34;53.81;93733.00;5023127;28;20471;-76
2022/03/09 00:23:48;;;;;;;28.58;12.30;;;;;;;-1.03;53.61;93764.47;5021107;28;20049;-72
2022/03/09 00:26:13;;;;;;;26.15;12.38;;;;;;;-1.07;53.35;93765.19;5026734;28;20029;-77
2022/03/09 00:28:39;;;;;;;25.83;13.75;;;;;;;-1.37;53.63;93749.94;5028001;28;20071;-76
2022/03/09 00:31:05;;;;;;;31.02;14.77;;;;;;;-1.30;53.68;93768.00;5018038;28;20122;-77
2022/03/09 00:33:30;;;;;;;28.45;13.95;;;;;;;-1.23;54.02;93761.59;5018062;28;20029;-76
2022/03/09 00:35:56;;;;;;;31.45;13.05;;;;;;;-1.37;54.02;93742.09;5022934;28;20052;-74
2022/03/09 00:38:21;;;;;;;24.25;13.35;;;;;;;-1.27;54.29;93757.09;5027225;28;20500;-75
2022/03/09 00:40:48;;;;;;;24.50;12.15;;;;;;;-1.45;53.79;93727.63;5022080;28;20016;-74
2022/03/09 00:43:15;;;;;;;23.02;13.85;;;;;;;-1.45;54.02;93729.44;5022880;28;20120;-73
2022/03/09 00:45:41;;;;;;;24.85;13.75;;;;;;;-1.16;54.07;93750.97;5016545;28;20688;-73
2022/03/09 00:48:06;;;;;;;29.30;13.98;;;;;;;-1.07;53.82;93754.75;5021637;28;20411;-74
2022/03/09 00:50:32;;;;;;;22.25;11.82;;;;;;;-1.22;53.41;93731.88;5034198;28;20327;-74
2022/03/09 00:52:57;;;;;;;25.58;11.75;;;;;;;-1.10;53.33;93745.56;5022773;28;20363;-74
2022/03/09 00:55:23;;;;;;;28.67;12.07;;;;;;;-1.18;52.93;93746.00;5020382;28;20045;-74
2022/03/09 00:57:48;;;;;;;25.17;11.70;;;;;;;-1.24;53.11;93739.13;5034937;28;20029;-74
2022/03/09 01:00:14;;;;;;;24.60;13.00;;;;;;;-1.36;53.42;93720.19;5025258;28;20059;-75
2022/03/09 01:02:41;;;;;;;20.60;11.45;;;;;;;-1.35;53.44;93706.09;5023552;28;20029;-76
2022/03/09 01:05:07;;;;;;;32.17;12.80;;;;;;;-1.16;53.08;93738.72;5011676;28;20427;-74
2022/03/09 01:07:33;;;;;;;26.70;13.77;;;;;;;-1.27;53.19;93723.19;5038395;28;20029;-74
2022/03/09 01:10:04;;;;;;;24.15;11.63;;;;;;;-1.10;53.29;93724.69;5025782;28;20128;-72
2022/03/09 01:12:30;;;;;;;27.15;11.98;;;;;;;-1.24;51.87;93701.81;5029422;28;20040;-76
2022/03/09 01:14:58;;;;;;;26.48;13.35;;;;;;;-1.14;52.62;93734.03;5026284;28;20519;-72
2022/03/09 01:17:26;;;;;;;34.30;15.80;;;;;;;-1.11;52.46;93730.94;5038674;28;20037;-77
2022/03/09 01:19:51;;;;;;;32.05;15.35;;;;;;;-1.10;52.30;93729.13;5021578;28;20051;-75
2022/03/09 01:22:17;;;;;;;27.90;12.93;;;;;;;-1.27;52.57;93691.88;5018952;28;20049;-76
2022/03/09 01:24:42;;;;;;;30.73;12.75;;;;;;;-1.08;52.37;93707.00;5023811;28;20065;-77
2022/03/09 01:27:07;;;;;;;32.13;14.30;;;;;;;-0.82;51.80;93720.31;5014584;28;20041;-76
2022/03/09 01:29:33;;;;;;;27.45;12.27;;;;;;;-1.00;51.65;93696.09;5025104;28;20552;-76
2022/03/09 01:31:59;;;;;;;29.38;13.52;;;;;;;-0.72;51.24;93725.63;5016958;28;20154;-73
2022/03/09 01:34:24;;;;;;;23.13;12.38;;;;;;;-0.82;51.05;93723.72;5026619;28;20291;-74
2022/03/09 01:36:50;;;;;;;26.73;12.90;;;;;;;-0.79;51.13;93720.63;5013561;28;20064;-77
2022/03/09 01:39:15;;;;;;;22.50;11.25;;;;;;;-1.03;50.91;93680.94;5019612;28;20048;-76
2022/03/09 01:41:41;;;;;;;27.33;13.65;;;;;;;-0.66;50.82;93714.22;5027064;28;20053;-76
2022/03/09 01:44:20;;;;;;;30.05;13.95;;;;;;;-0.65;50.44;93713.97;5015826;28;20771;-77
2022/03/09 01:46:51;;;;;;;23.27;11.52;;;;;;;-0.79;49.85;93714.63;5023839;28;20025;-75
2022/03/09 01:49:17;;;;;;;26.70;12.68;;;;;;;-0.73;49.77;93705.81;5022480;28;20973;-75
2022/03/09 01:51:45;;;;;;;30.30;13.55;;;;;;;-0.65;49.96;93728.88;5027152;28;20037;-76
2022/03/09 01:54:11;;;;;;;25.88;12.07;;;;;;;-0.58;49.81;93716.41;5023834;28;20151;-73
2022/03/09 01:56:38;;;;;;;34.55;12.57;;;;;;;-0.69;49.67;93714.72;5023179;28;20440;-77
2022/03/09 01:59:10;;;;;;;31.92;13.85;;;;;;;-0.72;49.71;93728.25;5023474;28;20755;-75
2022/03/09 02:01:36;;;;;;;23.33;11.68;;;;;;;-0.99;50.10;93715.97;5026679;28;20120;-76
2022/03/09 02:04:05;;;;;;;20.58;12.10;;;;;;;-0.78;49.93;93729.25;5023403;28;20028;-73
2022/03/09 02:06:32;;;;;;;23.63;12.68;;;;;;;-0.70;49.81;93727.00;5028431;28;20033;-75
2022/03/09 02:11:44;;;;;;;;;;;;;;;-0.84;49.64;93719.78;5025860;28;20059;-73
2022/03/09 02:14:28;;;;;;;21.33;11.88;;;;;;;-0.87;49.55;93722.88;5037354;28;20279;-71
2022/03/09 02:16:54;;;;;;;25.45;12.82;;;;;;;-0.71;49.27;93722.78;5025156;28;21065;-71
2022/03/09 02:19:20;;;;;;;24.55;11.88;;;;;;;-0.82;49.16;93705.44;5024980;28;20033;-70
2022/03/09 02:21:47;;;;;;;22.35;12.38;;;;;;;-0.80;49.17;93718.25;5021112;28;20043;-72
2022/03/09 02:24:13;;;;;;;24.95;13.00;;;;;;;-0.86;49.91;93703.56;5020451;28;20026;-72
2022/03/09 02:26:38;;;;;;;25.52;11.48;;;;;;;-0.78;49.86;93711.75;5036239;28;20526;-72
2022/03/09 02:29:04;;;;;;;22.90;11.80;;;;;;;-0.66;49.52;93715.00;5017470;28;20053;-70
2022/03/09 02:31:29;;;;;;;25.10;13.07;;;;;;;-0.56;49.29;93709.09;5020624;28;20540;-71
2022/03/09 02:33:55;;;;;;;29.90;12.70;;;;;;;-0.68;49.58;93711.84;5019629;28;20052;-77
2022/03/09 02:36:20;;;;;;;29.73;12.30;;;;;;;-0.67;49.32;93692.53;5019363;28;20064;-75
2022/03/09 02:38:45;;;;;;;30.23;14.32;;;;;;;-0.48;48.95;93710.50;5032846;28;20041;-72
2022/03/09 02:41:11;;;;;;;23.67;12.50;;;;;;;-0.79;49.32;93719.84;5025404;28;20021;-70
2022/03/09 02:43:37;;;;;;;27.67;14.13;;;;;;;-0.88;49.58;93685.53;5018283;28;20021;-76
2022/03/09 02:46:02;;;;;;;32.28;14.68;;;;;;;-0.60;49.02;93695.75;5021185;28;20041;-73
2022/03/09 02:48:28;;;;;;;31.90;14.98;;;;;;;-0.75;49.27;93694.81;5017285;28;20178;-71
2022/03/09 02:50:53;;;;;;;27.92;13.43;;;;;;;-0.56;49.26;93703.88;5024122;28;20473;-71
2022/03/09 02:53:18;;;;;;;30.70;13.48;;;;;;;-0.89;49.21;93677.94;5018873;28;20033;-71
2022/03/09 02:55:44;;;;;;;27.85;14.20;;;;;;;-0.55;49.29;93721.13;5026147;28;20094;-72
2022/03/09 02:58:09;;;;;;;27.23;14.20;;;;;;;-0.65;49.13;93674.81;5018789;28;20157;-71
2022/03/09 03:00:35;;;;;;;21.58;12.80;;;;;;;-0.44;49.06;93712.38;5023012;28;20079;-74
2022/03/09 03:03:00;;;;;;;25.27;14.35;;;;;;;-0.76;49.24;93708.88;5034525;28;20155;-71
2022/03/09 03:05:25;;;;;;;31.15;15.48;;;;;;;-0.46;49.12;93718.84;5017610;28;20033;-71
2022/03/09 03:07:51;;;;;;;28.65;12.95;;;;;;;-0.27;48.62;93712.25;5029186;28;20482;-71
2022/03/09 03:10:16;;;;;;;29.65;13.55;;;;;;;-0.62;48.40;93691.78;5026152;28;20124;-73
2022/03/09 03:12:42;;;;;;;28.98;13.43;;;;;;;-0.56;49.12;93707.28;5032170;28;20036;-71
2022/03/09 03:15:07;;;;;;;19.48;11.95;;;;;;;-0.57;48.93;93715.34;5024358;28;20111;-70
2022/03/09 03:17:37;;;;;;;28.55;14.02;;;;;;;-0.93;49.55;93713.41;5026115;28;20483;-72
2022/03/09 03:20:04;;;;;;;32.88;14.65;;;;;;;-0.72;49.29;93726.44;5023996;28;20033;-73
2022/03/09 03:22:29;;;;;;;25.80;13.90;;;;;;;-1.00;49.43;93724.03;5034293;28;20040;-72
2022/03/09 03:24:55;;;;;;;27.60;13.85;;;;;;;-1.13;49.64;93703.53;5025246;28;20045;-74
2022/03/09 03:27:20;;;;;;;23.52;12.82;;;;;;;-1.24;50.04;93725.31;5027545;28;20499;-73
2022/03/09 03:29:45;;;;;;;23.95;12.07;;;;;;;-1.36;50.28;93709.75;5026397;28;20238;-73
2022/03/09 03:32:11;;;;;;;36.30;15.07;;;;;;;-1.41;50.59;93726.13;5016056;28;20028;-73
2022/03/09 03:34:37;;;;;;;23.38;12.90;;;;;;;-1.18;50.56;93730.34;5023057;28;20025;-73
2022/03/09 03:37:02;;;;;;;26.10;13.35;;;;;;;-1.33;50.00;93706.66;5019840;28;20404;-70
2022/03/09 03:39:28;;;;;;;25.13;12.57;;;;;;;-1.20;49.87;93714.13;5029797;28;20460;-76
2022/03/09 03:41:55;;;;;;;24.80;10.70;;;;;;;-1.18;50.06;93732.97;5019399;28;20122;-72
2022/03/09 03:44:20;;;;;;;34.17;13.27;;;;;;;-1.23;49.78;93729.50;5032285;28;20040;-75
2022/03/09 03:46:46;;;;;;;22.30;12.20;;;;;;;-1.38;50.07;93730.88;5026830;28;20067;-75
2022/03/09 03:49:11;;;;;;;23.05;11.63;;;;;;;-1.71;50.34;93670.19;5017524;28;20568;-73
2022/03/09 03:51:37;;;;;;;28.38;13.70;;;;;;;-1.29;50.08;93730.44;5029234;28;20041;-71
2022/03/09 03:54:03;;;;;;;21.58;11.98;;;;;;;-1.37;49.82;93713.41;5024776;28;20044;-70
2022/03/09 03:56:29;;;;;;;25.85;11.30;;;;;;;-1.35;50.18;93734.81;5024015;28;20029;-70
2022/03/09 03:58:54;;;;;;;22.27;11.77;;;;;;;-1.49;50.55;93728.34;5023264;28;20033;-71
2022/03/09 04:01:20;;;;;;;25.48;12.73;;;;;;;-1.67;49.96;93715.59;5026029;28;20064;-73
2022/03/09 04:03:45;;;;;;;24.90;12.65;;;;;;;-1.60;50.20;93721.41;5026303;28;20034;-71
2022/03/09 04:06:10;;;;;;;20.80;12.25;;;;;;;-1.43;50.32;93735.22;5028242;28;20060;-70
2022/03/09 04:08:36;;;;;;;27.15;12.73;;;;;;;-1.67;50.87;93728.63;5021963;28;20423;-71
2022/03/09 04:11:02;;;;;;;24.30;11.93;;;;;;;-1.63;50.54;93708.88;5025128;28;20025;-72
2022/03/09 04:13:28;;;;;;;26.33;12.35;;;;;;;-1.53;50.23;93707.19;5022604;28;20041;-72
2022/03/09 04:15:53;;;;;;;21.05;11.55;;;;;;;-1.62;49.95;93715.66;5023820;28;20041;-72
2022/03/09 04:18:19;;;;;;;20.98;11.85;;;;;;;-1.75;50.16;93700.38;5029659;28;20344;-72
2022/03/09 04:20:44;;;;;;;22.02;12.38;;;;;;;-1.70;50.53;93705.66;5022621;28;20638;-70
2022/03/09 04:23:10;;;;;;;23.35;11.88;;;;;;;-1.63;50.78;93714.09;5035716;28;20119;-71
2022/03/09 04:25:38;;;;;;;23.23;12.07;;;;;;;-1.40;50.58;93727.72;5029828;28;20402;-71
2022/03/09 04:28:04;;;;;;;24.65;12.20;;;;;;;-1.35;49.85;93720.97;5025967;28;20029;-71
2022/03/09 04:30:30;;;;;;;23.42;12.63;;;;;;;-1.58;50.19;93716.75;5021963;28;20044;-71
2022/03/09 04:32:55;;;;;;;31.80;14.60;;;;;;;-1.47;50.18;93728.91;5021341;28;20399;-71
2022/03/09 04:35:21;;;;;;;22.92;11.80;;;;;;;-1.61;49.88;93722.47;5024820;28;20051;-71
2022/03/09 04:37:47;;;;;;;23.50;12.88;;;;;;;-1.76;50.57;93736.06;5040342;28;20048;-74
2022/03/09 04:40:13;;;;;;;19.58;9.82;;;;;;;-1.77;50.60;93724.06;5025013;28;20029;-73
2022/03/09 04:42:39;;;;;;;23.80;13.07;;;;;;;-1.72;50.55;93734.56;5037462;28;20064;-73
2022/03/09 04:45:05;;;;;;;26.58;12.65;;;;;;;-1.77;50.82;93737.09;5028757;28;22663;-75
2022/03/09 04:47:30;;;;;;;28.55;13.07;;;;;;;-1.96;50.86;93704.50;5017118;28;20183;-75
2022/03/09 04:49:56;;;;;;;26.75;12.45;;;;;;;-1.86;50.81;93735.91;5027720;28;20368;-76
2022/03/09 04:52:22;;;;;;;24.38;11.82;;;;;;;-2.08;50.96;93707.16;5020620;28;20046;-75
2022/03/09 04:54:47;;;;;;;24.83;11.07;;;;;;;-1.90;50.70;93703.53;5027224;28;20041;-75
2022/03/09 04:57:14;;;;;;;22.98;12.18;;;;;;;-1.84;51.00;93724.22;5017559;28;20411;-75
2022/03/09 04:59:39;;;;;;;24.27;12.10;;;;;;;-1.86;50.70;93721.06;5023778;28;20032;-73
2022/03/09 05:02:05;;;;;;;24.90;14.05;;;;;;;-1.94;50.89;93726.66;5027602;28;20390;-76
2022/03/09 05:04:30;;;;;;;25.55;13.23;;;;;;;-1.88;51.01;93715.28;5024282;28;20381;-77
2022/03/09 05:06:56;;;;;;;29.45;14.05;;;;;;;-1.74;51.09;93731.41;5021566;28;20041;-77
2022/03/09 05:09:21;;;;;;;33.17;15.82;;;;;;;-1.72;51.14;93710.31;5028142;28;20095;-76
2022/03/09 05:11:47;;;;;;;28.80;15.73;;;;;;;-1.70;50.86;93705.66;5020774;28;20139;-77
2022/03/09 05:14:12;;;;;;;25.42;13.52;;;;;;;-1.39;50.58;93741.53;5027138;28;20017;-75
2022/03/09 05:16:39;;;;;;;26.02;13.73;;;;;;;-1.37;50.35;93747.31;5022706;28;20457;-75
2022/03/09 05:19:05;;;;;;;29.52;14.18;;;;;;;-1.31;50.49;93743.72;5021899;28;20503;-74
2022/03/09 05:21:31;;;;;;;35.83;16.40;;;;;;;-1.28;50.05;93739.88;5020160;28;20633;-76
2022/03/09 05:23:56;;;;;;;27.83;12.88;;;;;;;-1.43;50.18;93733.41;5022836;28;20509;-75
2022/03/09 05:26:21;;;;;;;27.85;12.82;;;;;;;-1.27;49.77;93749.28;5021323;28;20040;-75
2022/03/09 05:28:47;;;;;;;32.33;16.13;;;;;;;-1.38;49.60;93741.31;5021605;28;20241;-76
2022/03/09 05:31:12;;;;;;;30.73;15.93;;;;;;;-1.30;49.75;93768.78;5026495;28;20560;-74
2022/03/09 05:33:38;;;;;;;30.67;15.95;;;;;;;-1.46;49.97;93751.38;5017089;28;21149;-76
2022/03/09 05:36:03;;;;;;;31.52;17.00;;;;;;;-1.46;49.95;93746.16;5026477;28;20119;-76
2022/03/09 05:38:30;;;;;;;35.83;18.63;;;;;;;-1.36;49.54;93766.38;5024638;28;20029;-73
2022/03/09 05:40:56;;;;;;;39.38;20.83;;;;;;;-1.88;50.07;93743.97;5036883;28;20045;-75
2022/03/09 05:43:22;;;;;;;40.00;18.35;;;;;;;-1.84;50.68;93750.28;5026544;28;20033;-76
2022/03/09 05:45:47;;;;;;;39.25;18.65;;;;;;;-2.00;50.79;93750.31;5016815;28;20487;-76
2022/03/09 05:48:12;;;;;;;40.22;20.02;;;;;;;-1.73;51.39;93771.31;5025943;28;20049;-75
2022/03/09 05:50:38;;;;;;;33.60;17.25;;;;;;;-1.64;50.90;93762.03;5033100;28;20033;-75
2022/03/09 05:53:03;;;;;;;24.83;14.05;;;;;;;-1.92;50.97;93758.50;5038267;28;20618;-76
2022/03/09 05:55:28;;;;;;;29.58;14.25;;;;;;;-1.99;50.89;93739.63;5018565;28;20446;-76
2022/03/09 05:57:54;;;;;;;25.08;15.38;;;;;;;-1.94;51.10;93780.59;5025865;28;20041;-77
2022/03/09 06:00:20;;;;;;;26.80;16.48;;;;;;;-1.89;51.43;93778.88;5022401;28;20029;-71
2022/03/09 06:02:45;;;;;;;27.25;13.48;;;;;;;-1.98;51.50;93761.25;5032493;28;20042;-76
2022/03/09 06:05:11;;;;;;;24.48;15.48;;;;;;;-1.94;51.48;93775.41;5016709;28;20029;-74
2022/03/09 06:07:38;;;;;;;20.23;12.30;;;;;;;-1.91;51.53;93780.94;5023675;28;20029;-76
2022/03/09 06:10:04;;;;;;;28.13;11.57;;;;;;;-1.85;51.12;93759.13;5027185;28;20029;-77
2022/03/09 06:12:29;;;;;;;32.13;14.80;;;;;;;-1.76;51.52;93774.41;5019621;28;20061;-77
2022/03/09 06:14:58;;;;;;;32.67;15.05;;;;;;;-1.59;51.07;93782.97;5020707;28;20042;-77
2022/03/09 06:17:24;;;;;;;30.17;14.63;;;;;;;-1.57;50.59;93760.88;5024157;28;20043;-77
2022/03/09 06:19:49;;;;;;;24.67;13.98;;;;;;;-1.30;50.16;93781.84;5023657;28;20395;-75
2022/03/09 06:22:14;;;;;;;26.25;13.25;;;;;;;-1.54;50.48;93773.41;5019793;28;20045;-74
2022/03/09 06:24:40;;;;;;;29.38;12.95;;;;;;;-1.35;50.09;93779.16;5026380;28;20219;-74
2022/03/09 06:27:05;;;;;;;32.67;14.40;;;;;;;-1.37;50.49;93773.41;5024947;28;20179;-76
2022/03/09 06:29:31;;;;;;;21.58;10.90;;;;;;;-1.13;50.17;93785.22;5020816;28;20110;-75
2022/03/09 06:31:56;;;;;;;31.02;13.07;;;;;;;-0.98;49.87;93782.81;5021655;28;20838;-75
2022/03/09 06:34:22;;;;;;;28.58;12.82;;;;;;;-0.77;49.37;93781.22;5025463;28;20029;-74
2022/03/09 06:36:48;;;;;;;24.75;12.73;;;;;;;-0.71;48.53;93793.31;5020198;28;20044;-75
2022/03/09 06:39:15;;;;;;;28.77;11.18;;;;;;;-0.96;48.36;93799.00;5026684;28;20116;-72
2022/03/09 06:41:42;;;;;;;19.70;12.18;;;;;;;-0.89;48.71;93798.03;5022706;28;20688;-72
2022/03/09 06:44:08;;;;;;;31.08;14.32;;;;;;;-0.98;49.10;93795.88;5024229;28;20451;-72
2022/03/09 06:46:33;;;;;;;31.20;15.40;;;;;;;-1.02;49.26;93776.47;5030128;28;20033;-77
2022/03/09 06:48:59;;;;;;;26.98;13.68;;;;;;;-0.93;49.31;93776.06;5022803;28;21482;-77
2022/03/09 06:51:24;;;;;;;25.55;13.65;;;;;;;-0.79;49.25;93801.56;5024309;28;20044;-77
2022/03/09 06:53:50;;;;;;;22.80;14.52;;;;;;;-0.86;48.77;93789.72;5025323;28;21092;-78
2022/03/09 06:56:18;;;;;;;27.33;13.70;;;;;;;-0.71;49.57;93795.13;5023921;28;20040;-76
2022/03/09 06:58:43;;;;;;;33.10;14.68;;;;;;;-0.64;49.54;93796.53;5024717;28;20125;-76
2022/03/09 07:01:09;;;;;;;30.40;15.23;;;;;;;-0.95;48.69;93784.94;5025551;28;20045;-76
2022/03/09 07:03:34;;;;;;;29.13;14.43;;;;;;;-0.65;49.07;93788.94;5019583;28;20033;-77
2022/03/09 07:05:59;;;;;;;29.50;13.85;;;;;;;-0.30;48.91;93812.06;5022390;28;20045;-77
2022/03/09 07:08:25;;;;;;;28.15;13.88;;;;;;;-0.24;48.64;93803.25;5026219;28;20045;-77
2022/03/09 07:10:50;;;;;;;32.88;14.65;;;;;;;-0.34;48.08;93796.09;5025577;28;20024;-78
2022/03/09 07:13:16;;;;;;;27.92;13.30;;;;;;;-0.38;47.77;93747.94;5026114;28;20561;-76
2022/03/09 07:15:41;;;;;;;33.75;17.52;;;;;;;-0.13;46.94;93781.38;5020394;28;20102;-77
2022/03/09 07:18:06;;;;;;;27.15;15.43;;;;;;;-0.27;46.57;93770.53;5022755;28;20902;-78
2022/03/09 07:20:32;;;;;;;19.95;11.30;;;;;;;-0.46;47.47;93771.91;5027280;28;20036;-78
2022/03/09 07:22:57;;;;;;;23.10;12.75;;;;;;;-0.13;47.39;93787.41;5023808;28;20116;-77
2022/03/09 07:25:23;;;;;;;29.85;14.13;;;;;;;-0.07;46.88;93778.56;5022458;28;20432;-74
2022/03/09 07:27:48;;;;;;;29.05;14.95;;;;;;;0.03;46.66;93790.16;5021843;28;20033;-77
2022/03/09 07:30:14;;;;;;;33.28;13.70;;;;;;;0.00;47.17;93786.22;5016680;28;20047;-75
2022/03/09 07:32:39;;;;;;;31.70;15.13;;;;;;;0.12;47.19;93793.88;5025124;28;20045;-75
2022/03/09 07:35:05;;;;;;;26.52;14.98;;;;;;;0.27;46.60;93791.41;5019485;28;20052;-76
2022/03/09 07:37:31;;;;;;;26.98;14.68;;;;;;;0.15;46.51;93786.34;5024368;28;20513;-76
2022/03/09 07:39:56;;;;;;;29.98;15.27;;;;;;;0.17;46.18;93784.25;5020976;28;20034;-72
2022/03/09 07:42:22;;;;;;;28.33;14.10;;;;;;;0.08;46.28;93792.81;5020846;28;20128;-74
2022/03/09 07:44:47;;;;;;;26.17;13.07;;;;;;;0.04;45.90;93773.44;5025228;28;20076;-76
2022/03/09 07:47:13;;;;;;;31.33;12.88;;;;;;;0.25;45.68;93772.56;5020926;28;20100;-75
2022/03/09 07:49:38;;;;;;;28.15;15.15;;;;;;;0.17;45.41;93765.16;5026353;28;20542;-77
2022/03/09 07:52:05;;;;;;;25.73;13.82;;;;;;;0.16;46.04;93774.03;5023816;28;20042;-76
2022/03/09 07:54:31;;;;;;;21.92;12.85;;;;;;;0.24;45.48;93776.22;5021313;28;20379;-76
2022/03/09 07:56:57;;;;;;;24.73;12.73;;;;;;;0.19;45.65;93752.66;5033186;28;20045;-74
2022/03/09 07:59:23;;;;;;;29.63;14.60;;;;;;;0.26;45.54;93747.97;5039178;28;20538;-73
2022/03/09 08:01:53;;;;;;;20.40;11.98;;;;;;;0.24;45.15;93765.75;5026528;28;20394;-74
2022/03/09 08:04:22;;;;;;;21.02;10.90;;;;;;;0.49;44.44;93781.66;5028593;28;20114;-74
2022/03/09 08:06:49;;;;;;;25.00;12.63;;;;;;;0.15;44.48;93746.34;5027256;28;20037;-71
2022/03/09 08:09:15;;;;;;;23.58;12.40;;;;;;;0.17;44.84;93747.66;5026947;28;20048;-71
2022/03/09 08:11:40;;;;;;;33.10;14.32;;;;;;;0.08;46.08;93775.31;5039713;28;20037;-72
2022/03/09 08:14:06;;;;;;;31.20;13.60;;;;;;;0.17;46.29;93781.66;5028739;28;20040;-74
2022/03/09 08:16:31;;;;;;;31.88;15.20;;;;;;;0.31;46.15;93753.25;5025110;28;20450;-74
2022/03/09 08:18:57;;;;;;;28.48;14.40;;;;;;;0.31;46.19;93751.41;5025493;28;20064;-75
2022/03/09 08:21:22;;;;;;;31.77;14.00;;;;;;;0.48;46.41;93776.66;5022411;28;20037;-74
2022/03/09 08:23:47;;;;;;;31.60;14.82;;;;;;;0.52;46.49;93773.28;5023810;28;20434;-74
2022/03/09 08:26:13;;;;;;;34.92;18.08;;;;;;;0.02;47.74;93751.97;5023207;28;20049;-75
2022/03/09 08:28:39;;;;;;;30.60;14.45;;;;;;;0.56;47.06;93774.34;5023998;28;20507;-76
2022/03/09 08:31:04;;;;;;;38.90;17.02;;;;;;;0.80;46.81;93774.78;5039515;28;20037;-76
2022/03/09 08:33:30;;;;;;;29.80;14.43;;;;;;;0.61;47.50;93758.69;5026673;28;20486;-75
2022/03/09 08:35:55;;;;;;;43.55;17.40;;;;;;;-0.11;47.94;93763.63;5025438;28;20056;-77
2022/03/09 08:38:21;;;;;;;31.08;14.73;;;;;;;-0.02;48.75;93750.88;5038870;28;20173;-77
2022/03/09 08:40:46;;;;;;;30.95;15.27;;;;;;;0.30;47.85;93744.59;5021563;28;20720;-74
2022/03/09 08:43:12;;;;;;;40.53;15.63;;;;;;;0.04;47.02;93749.91;5025793;28;20789;-74
2022/03/09 08:45:38;;;;;;;29.77;13.15;;;;;;;0.12;47.92;93723.28;5023549;28;20078;-77
2022/03/09 08:48:04;;;;;;;32.97;16.65;;;;;;;0.62;47.82;93751.63;5020568;28;20060;-72
2022/03/09 08:50:30;;;;;;;37.58;16.52;;;;;;;0.80;47.28;93744.13;5017882;28;20051;-72
2022/03/09 08:52:56;;;;;;;29.85;15.57;;;;;;;1.07;47.24;93754.50;5019214;28;20373;-70
2022/03/09 08:55:22;;;;;;;33.97;16.40;;;;;;;1.46;46.08;93757.53;5024064;28;20037;-71
2022/03/09 08:57:48;;;;;;;43.90;18.08;;;;;;;0.75;47.14;93753.78;5024004;28;20050;-74
2022/03/09 09:00:14;;;;;;;39.67;16.58;;;;;;;0.79;47.56;93763.50;5026900;28;20458;-72
2022/03/09 09:02:39;;;;;;;32.78;15.35;;;;;;;0.92;47.58;93756.25;5024987;28;20510;-71
2022/03/09 09:05:05;;;;;;;34.00;15.90;;;;;;;0.66;47.38;93743.03;5025183;28;20037;-76
2022/03/09 09:07:30;;;;;;;29.15;15.70;;;;;;;0.82;47.05;93756.19;5034719;28;21025;-75
2022/03/09 09:09:56;;;;;;;34.47;15.13;;;;;;;0.65;48.29;93746.66;5023850;28;20145;-76
2022/03/09 09:12:25;;;;;;;30.58;14.85;;;;;;;0.17;49.10;93742.41;5029683;28;20041;-76
2022/03/09 09:14:50;;;;;;;53.10;21.92;;;;;;;-0.34;49.98;93728.13;5021191;28;20053;-73
2022/03/09 09:17:16;;;;;;;38.80;18.55;;;;;;;0.48;49.02;93761.75;5021130;28;20032;-76
2022/03/09 09:19:41;;;;;;;33.75;15.30;;;;;;;0.40;48.61;93738.66;5013469;28;21053;-76
2022/03/09 09:22:07;;;;;;;33.92;16.58;;;;;;;0.72;48.87;93757.72;5021692;28;20123;-75
2022/03/09 09:24:32;;;;;;;30.52;15.95;;;;;;;0.33;49.55;93761.63;5022035;28;20044;-76
2022/03/09 09:26:58;;;;;;;33.63;14.48;;;;;;;0.53;49.13;93753.16;5020152;28;20045;-74
2022/03/09 09:29:23;;;;;;;34.92;15.23;;;;;;;0.66;50.12;93739.59;5015355;28;20510;-75
2022/03/09 09:31:49;;;;;;;32.33;15.65;;;;;;;0.88;48.61;93752.56;5015998;28;20821;-75
2022/03/09 09:34:16;;;;;;;31.90;15.40;;;;;;;0.76;48.30;93737.84;5021988;28;20042;-71
2022/03/09 09:36:45;;;;;;;29.67;13.45;;;;;;;0.60;49.57;93757.09;5025870;28;20575;-71
2022/03/09 09:39:13;;;;;;;35.90;16.75;;;;;;;1.08;49.08;93756.06;5024804;28;20056;-71
2022/03/09 09:41:41;;;;;;;42.47;16.27;;;;;;;1.01;48.20;93733.78;5016921;28;20082;-72
2022/03/09 09:44:09;;;;;;;42.25;20.35;;;;;;;0.69;49.09;93732.03;5013704;28;20021;-70
2022/03/09 09:46:35;;;;;;;39.75;17.40;;;;;;;1.12;48.55;93756.34;5018987;28;20048;-73
2022/03/09 09:49:00;;;;;;;110.70;38.10;;;;;;;1.13;48.36;93748.22;5012241;28;21091;-71
2022/03/09 09:51:27;;;;;;;31.83;15.95;;;;;;;0.64;48.67;93734.63;5019728;28;20045;-72
2022/03/09 09:53:52;;;;;;;30.77;14.25;;;;;;;0.44;48.98;93755.44;5015902;28;20191;-70
2022/03/09 09:56:20;;;;;;;31.08;16.13;;;;;;;0.68;49.28;93738.34;5022885;28;20033;-73
2022/03/09 09:58:46;;;;;;;29.95;15.25;;;;;;;1.25;48.56;93753.25;5022177;28;20645;-75
2022/03/09 10:01:12;;;;;;;26.27;14.40;;;;;;;0.64;47.63;93752.94;5016680;28;20128;-73
2022/03/09 10:03:37;;;;;;;32.53;14.73;;;;;;;0.91;47.67;93759.91;5016222;28;20387;-76
2022/03/09 10:06:03;;;;;;;33.55;14.73;;;;;;;0.13;47.67;93759.66;5019236;28;20044;-74
2022/03/09 10:08:29;;;;;;;23.73;12.85;;;;;;;0.48;47.84;93756.53;5019003;28;20546;-74
2022/03/09 10:10:59;;;;;;;30.15;12.32;;;;;;;0.43;47.47;93750.47;5020836;28;20037;-74
2022/03/09 10:13:27;;;;;;;19.55;11.27;;;;;;;0.80;47.07;93728.44;5022174;28;20041;-76
2022/03/09 10:16:06;;;;;;;28.20;13.38;;;;;;;0.63;47.62;93754.00;5012894;28;20106;-76
2022/03/09 10:18:32;;;;;;;26.30;12.95;;;;;;;0.54;48.03;93755.53;5018264;28;20621;-78
2022/03/09 10:21:09;;;;;;;24.15;10.35;;;;;;;0.67;47.33;93723.66;5015349;28;20487;-76
2022/03/09 10:24:01;;;;;;;19.40;11.68;;;;;;;0.82;47.33;93745.72;5023716;28;20090;-77
2022/03/09 10:26:38;;;;;;;18.20;10.52;;;;;;;0.84;47.09;93748.88;5024832;28;20099;-77
2022/03/09 10:29:07;;;;;;;18.90;9.50;;;;;;;0.95;47.23;93750.50;5024476;28;20020;-77
2022/03/09 10:31:35;;;;;;;21.83;11.85;;;;;;;0.75;48.02;93746.72;5025003;28;20017;-77
2022/03/09 10:34:06;;;;;;;26.83;11.48;;;;;;;1.02;47.37;93743.22;5021017;28;20107;-78
2022/03/09 10:36:31;;;;;;;25.20;12.15;;;;;;;1.01;46.40;93715.44;5023488;28;20095;-75
2022/03/09 10:39:31;;;;;;;20.30;11.38;;;;;;;1.13;47.40;93747.47;5023000;28;20037;-78
2022/03/09 10:41:58;;;;;;;24.15;13.52;;;;;;;1.27;46.34;93737.28;5002468;28;20155;-76
2022/03/09 10:44:46;;;;;;;56.72;20.52;;;;;;;1.05;46.58;93740.88;5024777;28;20075;-76
2022/03/09 10:47:30;;;;;;;20.35;9.85;;;;;;;0.95;46.04;93677.97;5021950;28;20056;-77
2022/03/09 10:50:20;;;;;;;18.52;9.10;;;;;;;1.47;45.74;93726.88;5026760;28;20487;-76
2022/03/09 10:52:52;;;;;;;14.98;8.65;;;;;;;1.63;43.95;93731.88;5034816;28;20684;-77
2022/03/09 10:55:29;;;;;;;21.17;9.15;;;;;;;1.53;44.21;93734.47;5029663;28;20029;-72
2022/03/09 10:58:12;;;;;;;16.27;9.80;;;;;;;1.49;44.13;93741.28;5038092;28;20589;-76
2022/03/09 11:00:53;;;;;;;20.48;10.02;;;;;;;1.38;45.36;93733.63;5021390;28;20044;-75
2022/03/09 11:03:20;;;;;;;15.45;8.90;;;;;;;1.48;43.57;93725.81;5019579;28;20032;-77
2022/03/09 11:05:54;;;;;;;11.65;6.95;;;;;;;1.59;43.43;93724.78;5024444;28;20059;-76
2022/03/09 11:08:26;;;;;;;16.90;7.47;;;;;;;1.65;41.84;93724.56;5021617;28;20387;-76
2022/03/09 11:10:54;;;;;;;11.88;7.18;;;;;;;1.58;40.28;93705.66;5018771;28;20052;-74
2022/03/09 11:13:21;;;;;;;15.30;8.48;;;;;;;1.65;40.91;93718.53;5023907;28;20092;-77
2022/03/09 11:15:49;;;;;;;16.20;6.65;;;;;;;1.53;41.00;93715.34;5018852;28;20030;-74
2022/03/09 11:18:19;;;;;;;12.48;6.65;;;;;;;1.52;41.84;93716.41;5018675;28;20037;-73
2022/03/09 11:20:46;;;;;;;12.93;7.10;;;;;;;1.52;41.90;93703.31;5036826;28;20080;-77
2022/03/09 11:23:13;;;;;;;13.40;7.20;;;;;;;1.74;41.94;93713.53;5027315;28;20036;-76